createdAt,value
2019-02-20T00:01:35.796Z,9.97
2019-02-20T00:04:05.223Z,9.60
2019-02-20T00:06:34.792Z,9.17
2019-02-20T00:09:04.908Z,8.80
2019-02-20T00:11:34.315Z,9.27
2019-02-20T00:14:03.717Z,8.63
2019-02-20T00:16:33.143Z,8.93
2019-02-20T00:19:02.557Z,9.37
2019-02-20T00:21:31.983Z,8.50
2019-02-20T00:24:01.428Z,9.17
2019-02-20T00:26:30.859Z,8.93
2019-02-20T00:29:00.278Z,9.67
2019-02-20T00:31:29.701Z,9.97
2019-02-20T00:33:59.180Z,9.63
2019-02-20T00:36:28.633Z,9.80
2019-02-20T00:38:58.041Z,9.90
2019-02-20T00:41:27.453Z,10.10
2019-02-20T00:43:58.467Z,10.17
2019-02-20T00:46:29.475Z,9.53
2019-02-20T00:49:00.506Z,9.53
2019-02-20T00:51:31.592Z,9.87
2019-02-20T00:54:02.590Z,10.07
2019-02-20T00:56:32.009Z,10.33
2019-02-20T00:59:01.418Z,10.73
2019-02-20T01:01:30.905Z,10.23
2019-02-20T01:04:00.979Z,10.60
2019-02-20T01:06:30.382Z,10.00
2019-02-20T01:08:59.800Z,9.73
2019-02-20T01:11:29.268Z,9.93
2019-02-20T01:13:58.737Z,10.40
2019-02-20T01:16:28.155Z,9.57
2019-02-20T01:18:57.654Z,10.07
2019-02-20T01:21:27.161Z,10.37
2019-02-20T01:23:56.575Z,11.03
2019-02-20T01:26:25.979Z,10.23
2019-02-20T01:28:55.377Z,10.60
2019-02-20T01:31:24.776Z,10.20
2019-02-20T01:33:54.195Z,11.00
2019-02-20T01:36:23.639Z,11.33
2019-02-20T01:38:53.050Z,9.97
2019-02-20T01:41:22.493Z,10.30
2019-02-20T01:43:51.899Z,10.90
2019-02-20T01:46:21.345Z,11.20
2019-02-20T01:48:50.806Z,10.73
2019-02-20T01:51:20.216Z,10.60
2019-02-20T01:53:49.681Z,10.60
2019-02-20T01:56:19.136Z,11.37
2019-02-20T01:58:48.568Z,11.07
2019-02-20T02:01:17.985Z,11.47
2019-02-20T02:03:47.448Z,12.40
2019-02-20T02:06:18.012Z,11.27
2019-02-20T02:08:47.440Z,11.63
2019-02-20T02:11:20.154Z,10.43
2019-02-20T02:13:49.618Z,10.87
2019-02-20T02:16:19.045Z,11.27
2019-02-20T02:18:48.470Z,10.63
2019-02-20T02:21:17.884Z,11.77
2019-02-20T02:23:47.746Z,11.77
2019-02-20T02:26:17.209Z,11.43
2019-02-20T02:28:46.642Z,11.50
2019-02-20T02:31:16.109Z,11.77
2019-02-20T02:33:45.516Z,12.30
2019-02-20T02:36:14.939Z,10.87
2019-02-20T02:38:44.359Z,12.13
2019-02-20T02:41:13.822Z,11.33
2019-02-20T02:43:43.219Z,11.33
2019-02-20T02:46:12.657Z,11.73
2019-02-20T02:48:42.167Z,11.23
2019-02-20T02:51:11.564Z,10.70
2019-02-20T02:53:40.981Z,11.67
2019-02-20T02:56:10.394Z,11.27
2019-02-20T02:58:39.819Z,11.23
2019-02-20T03:01:09.236Z,11.10
2019-02-20T03:03:38.681Z,11.23
2019-02-20T03:06:08.084Z,9.97
2019-02-20T03:08:38.685Z,12.10
2019-02-20T03:11:08.103Z,11.03
2019-02-20T03:13:40.195Z,11.07
2019-02-20T03:16:09.598Z,11.10
2019-02-20T03:18:39.000Z,11.23
2019-02-20T03:21:08.404Z,11.80
2019-02-20T03:23:40.790Z,10.47
2019-02-20T03:26:13.257Z,11.10
2019-02-20T03:28:45.558Z,11.47
2019-02-20T03:31:15.006Z,10.93
2019-02-20T03:33:44.428Z,11.17
2019-02-20T03:36:13.883Z,11.27
2019-02-20T03:38:43.293Z,11.33
2019-02-20T03:41:12.713Z,11.17
2019-02-20T03:43:43.528Z,10.23
2019-02-20T03:46:12.947Z,11.07
2019-02-20T03:48:42.416Z,11.17
2019-02-20T03:51:11.801Z,10.93
2019-02-20T03:53:50.850Z,10.00
2019-02-20T03:56:12.343Z,9.77
2019-02-20T03:58:43.379Z,10.90
2019-02-20T04:01:12.835Z,10.03
2019-02-20T04:03:42.293Z,10.00
2019-02-20T04:06:11.720Z,9.93
2019-02-20T04:08:44.993Z,9.77
2019-02-20T04:11:14.412Z,10.57
2019-02-20T04:13:43.900Z,10.53
2019-02-20T04:16:13.407Z,9.83
2019-02-20T04:18:42.811Z,10.43
2019-02-20T04:21:12.236Z,10.13
2019-02-20T04:23:41.680Z,10.60
2019-02-20T04:26:11.133Z,10.40
2019-02-20T04:28:40.527Z,10.03
2019-02-20T04:31:10.546Z,9.57
2019-02-20T04:33:39.950Z,9.27
2019-02-20T04:36:09.395Z,10.00
2019-02-20T04:38:38.811Z,9.67
2019-02-20T04:41:08.239Z,9.00
2019-02-20T04:43:37.691Z,9.87
2019-02-20T04:46:07.118Z,9.93
2019-02-20T04:48:36.524Z,9.67
2019-02-20T04:51:05.992Z,9.23
2019-02-20T04:53:48.713Z,9.50
2019-02-20T04:56:18.115Z,10.30
2019-02-20T04:58:50.478Z,10.17
2019-02-20T05:01:19.900Z,9.80
2019-02-20T05:03:49.364Z,9.50
2019-02-20T05:06:18.780Z,10.53
2019-02-20T05:08:49.389Z,9.60
2019-02-20T05:11:18.795Z,10.03
2019-02-20T05:13:48.208Z,10.23
2019-02-20T05:16:17.646Z,10.17
2019-02-20T05:18:47.104Z,10.40
2019-02-20T05:21:16.510Z,9.80
2019-02-20T05:23:45.989Z,9.63
2019-02-20T05:26:15.403Z,9.60
2019-02-20T05:28:44.829Z,9.77
2019-02-20T05:31:16.425Z,9.20
2019-02-20T05:33:45.368Z,9.80
2019-02-20T05:36:14.773Z,10.43
2019-02-20T05:38:45.988Z,9.90
2019-02-20T05:41:15.470Z,9.70
2019-02-20T05:43:44.879Z,10.33
2019-02-20T05:46:14.386Z,10.03
2019-02-20T05:48:43.807Z,10.03
2019-02-20T05:51:13.394Z,10.73
2019-02-20T05:53:42.935Z,10.23
2019-02-20T05:56:12.325Z,10.53
2019-02-20T05:58:41.759Z,9.90
2019-02-20T06:01:11.526Z,10.73
2019-02-20T06:03:40.975Z,10.73
2019-02-20T06:06:10.434Z,10.63
2019-02-20T06:08:39.883Z,11.53
2019-02-20T06:11:14.918Z,10.57
2019-02-20T06:13:42.410Z,10.77
2019-02-20T06:16:11.852Z,10.10
2019-02-20T06:18:41.265Z,11.90
2019-02-20T06:21:10.721Z,11.20
2019-02-20T06:23:40.164Z,11.50
2019-02-20T06:26:09.653Z,10.50
2019-02-20T06:28:39.109Z,10.53
2019-02-20T06:31:08.522Z,10.90
2019-02-20T06:33:37.945Z,10.50
2019-02-20T06:36:07.413Z,9.37
2019-02-20T06:38:36.805Z,10.57
2019-02-20T06:41:06.226Z,10.80
2019-02-20T06:43:35.667Z,9.80
2019-02-20T06:46:05.049Z,10.23
2019-02-20T06:48:34.611Z,9.97
2019-02-20T06:51:04.063Z,10.40
2019-02-20T06:53:33.517Z,9.73
2019-02-20T06:56:02.992Z,11.23
2019-02-20T06:58:32.496Z,10.70
2019-02-20T07:01:01.961Z,10.60
2019-02-20T07:03:31.359Z,10.30
2019-02-20T07:06:03.948Z,9.47
2019-02-20T07:08:36.972Z,10.30
2019-02-20T07:11:28.691Z,10.93
2019-02-20T07:14:01.288Z,10.50
2019-02-20T07:16:33.859Z,10.07
2019-02-20T07:19:06.438Z,9.83
2019-02-20T07:21:39.025Z,10.67
2019-02-20T07:24:11.891Z,11.17
2019-02-20T07:26:44.423Z,9.90
2019-02-20T07:29:17.008Z,10.97
2019-02-20T07:31:46.450Z,10.77
2019-02-20T07:34:15.917Z,10.33
2019-02-20T07:36:45.382Z,11.33
2019-02-20T07:39:14.871Z,11.03
2019-02-20T07:41:44.332Z,11.40
2019-02-20T07:44:26.589Z,10.93
2019-02-20T07:46:56.014Z,11.17
2019-02-20T07:49:25.461Z,11.30
2019-02-20T07:51:54.963Z,10.73
2019-02-20T07:54:24.364Z,11.90
2019-02-20T07:56:53.770Z,10.87
2019-02-20T07:59:23.173Z,11.30
2019-02-20T08:01:52.606Z,11.33
2019-02-20T08:04:22.175Z,11.77
2019-02-20T08:07:04.733Z,11.13
2019-02-20T08:09:34.445Z,10.77
2019-02-20T08:12:03.800Z,10.67
2019-02-20T08:14:34.445Z,10.50
2019-02-20T08:17:03.869Z,10.73
2019-02-20T08:19:33.296Z,10.97
2019-02-20T08:22:02.747Z,10.90
2019-02-20T08:24:32.467Z,11.23
2019-02-20T08:27:02.023Z,11.63
2019-02-20T08:29:31.466Z,12.07
2019-02-20T08:32:00.878Z,11.97
2019-02-20T08:34:30.315Z,12.47
2019-02-20T08:36:59.824Z,12.93
2019-02-20T08:39:29.307Z,12.67
2019-02-20T08:41:58.858Z,13.07
2019-02-20T08:44:47.801Z,12.33
2019-02-20T08:47:17.280Z,13.03
2019-02-20T08:49:46.714Z,13.13
2019-02-20T08:52:16.152Z,13.40
2019-02-20T08:54:45.553Z,13.33
2019-02-20T08:57:15.048Z,13.23
2019-02-20T08:59:44.453Z,12.53
2019-02-20T09:02:14.295Z,12.90
2019-02-20T09:04:43.761Z,13.73
2019-02-20T09:07:13.436Z,13.03
2019-02-20T09:09:42.872Z,14.23
2019-02-20T09:12:12.856Z,13.47
2019-02-20T09:14:43.864Z,14.60
2019-02-20T09:17:13.340Z,13.87
2019-02-20T09:19:44.399Z,14.13
2019-02-20T09:22:13.843Z,15.13
2019-02-20T09:24:43.268Z,15.10
2019-02-20T09:27:13.300Z,15.47
2019-02-20T09:29:42.842Z,15.00
2019-02-20T09:32:12.261Z,15.43
2019-02-20T09:34:41.722Z,16.17
2019-02-20T09:37:11.143Z,16.57
2019-02-20T09:39:43.256Z,16.27
2019-02-20T09:42:11.827Z,16.57
2019-02-20T09:44:43.870Z,19.20
2019-02-20T09:47:13.307Z,18.50
2019-02-20T09:49:42.769Z,18.87
2019-02-20T09:52:12.200Z,18.73
2019-02-20T09:54:59.750Z,19.27
2019-02-20T09:57:29.269Z,19.73
2019-02-20T09:59:58.687Z,18.60
2019-02-20T10:02:28.135Z,19.60
2019-02-20T10:04:57.539Z,20.47
2019-02-20T10:07:26.965Z,20.67
2019-02-20T10:09:56.483Z,20.37
2019-02-20T10:12:25.956Z,19.90
2019-02-20T10:14:55.494Z,21.97
2019-02-20T10:17:24.966Z,22.00
2019-02-20T10:19:54.391Z,22.20
2019-02-20T10:22:24.282Z,22.40
2019-02-20T10:24:53.892Z,22.77
2019-02-20T10:27:23.314Z,24.43
2019-02-20T10:29:52.738Z,24.57
2019-02-20T10:32:22.147Z,23.50
2019-02-20T10:34:51.805Z,25.73
2019-02-20T10:37:21.268Z,24.57
2019-02-20T10:39:50.778Z,26.53
2019-02-20T10:42:37.963Z,24.83
2019-02-20T10:45:09.692Z,25.33
2019-02-20T10:47:39.106Z,25.33
2019-02-20T10:50:10.764Z,25.93
2019-02-20T10:52:40.360Z,26.17
2019-02-20T10:55:10.175Z,22.03
2019-02-20T10:57:39.596Z,18.90
2019-02-20T11:00:23.471Z,17.73
2019-02-20T11:02:44.895Z,16.47
2019-02-20T11:05:14.325Z,15.90
2019-02-20T11:07:46.409Z,14.83
2019-02-20T11:10:15.822Z,14.23
2019-02-20T11:12:45.352Z,13.77
2019-02-20T11:15:15.513Z,14.13
2019-02-20T11:17:44.989Z,13.23
2019-02-20T11:20:14.435Z,12.40
2019-02-20T11:22:43.872Z,13.90
2019-02-20T11:25:13.461Z,12.97
2019-02-20T11:27:42.957Z,12.33
2019-02-20T11:30:15.659Z,11.20
2019-02-20T11:32:45.100Z,12.50
2019-02-20T11:35:14.534Z,11.90
2019-02-20T11:37:43.991Z,11.60
2019-02-20T11:40:14.064Z,10.77
2019-02-20T11:42:43.473Z,10.60
2019-02-20T11:45:14.933Z,9.70
2019-02-20T11:47:44.326Z,10.13
2019-02-20T11:50:13.772Z,10.80
2019-02-20T11:52:43.272Z,9.67
2019-02-20T11:55:13.869Z,9.10
2019-02-20T11:57:43.280Z,9.20
2019-02-20T12:00:15.369Z,8.90
2019-02-20T12:02:44.796Z,8.70
2019-02-20T12:05:14.247Z,8.43
2019-02-20T12:07:43.656Z,7.07
2019-02-20T12:10:15.218Z,6.97
2019-02-20T12:12:44.921Z,7.83
2019-02-20T12:15:14.528Z,7.10
2019-02-20T12:17:43.926Z,7.50
2019-02-20T12:20:13.857Z,7.83
2019-02-20T12:22:43.355Z,7.90
2019-02-20T12:25:12.751Z,7.70
2019-02-20T12:27:43.789Z,7.93
2019-02-20T12:30:13.201Z,6.77
2019-02-20T12:32:44.400Z,5.60
2019-02-20T12:35:14.010Z,6.17
2019-02-20T12:37:44.577Z,6.60
2019-02-20T12:40:14.538Z,5.77
2019-02-20T12:42:44.070Z,5.47
2019-02-20T12:45:13.508Z,5.70
2019-02-20T12:47:43.039Z,6.23
2019-02-20T12:50:13.505Z,5.63
2019-02-20T12:52:43.103Z,5.63
2019-02-20T12:55:12.540Z,5.73
2019-02-20T12:57:41.980Z,5.80
2019-02-20T13:00:15.578Z,5.97
2019-02-20T13:02:45.396Z,6.37
2019-02-20T13:05:14.825Z,6.60
2019-02-20T13:07:44.279Z,7.73
2019-02-20T13:10:13.704Z,7.10
2019-02-20T13:12:43.215Z,7.40
2019-02-20T13:15:12.709Z,7.53
2019-02-20T13:17:42.276Z,7.67
2019-02-20T13:20:11.935Z,7.13
2019-02-20T13:22:41.336Z,7.77
2019-02-20T13:25:10.835Z,8.00
2019-02-20T13:27:40.438Z,7.60
2019-02-20T13:30:12.862Z,7.40
2019-02-20T13:32:42.311Z,8.30
2019-02-20T13:35:11.745Z,8.03
2019-02-20T13:37:41.145Z,7.77
2019-02-20T13:40:11.021Z,8.03
2019-02-20T13:42:40.455Z,8.20
2019-02-20T13:45:09.936Z,8.43
2019-02-20T13:47:40.483Z,8.80
2019-02-20T13:50:14.367Z,8.37
2019-02-20T13:52:52.061Z,8.20
2019-02-20T13:55:15.360Z,9.00
2019-02-20T13:57:44.973Z,9.43
2019-02-20T14:00:14.490Z,9.03
2019-02-20T14:02:43.986Z,8.83
2019-02-20T14:05:13.498Z,9.80
2019-02-20T14:07:43.268Z,9.57
2019-02-20T14:10:12.983Z,9.07
2019-02-20T14:13:00.254Z,9.53
2019-02-20T14:15:29.690Z,9.10
2019-02-20T14:17:59.197Z,9.33
2019-02-20T14:20:28.604Z,9.40
2019-02-20T14:22:58.025Z,9.97
2019-02-20T14:25:27.481Z,9.70
2019-02-20T14:27:56.971Z,10.30
2019-02-20T14:30:26.480Z,9.70
2019-02-20T14:32:55.946Z,9.47
2019-02-20T14:35:25.434Z,8.93
2019-02-20T14:37:54.863Z,9.10
2019-02-20T14:40:24.371Z,8.27
2019-02-20T14:42:53.920Z,8.30
2019-02-20T14:45:23.421Z,7.93
2019-02-20T14:47:52.859Z,7.87
2019-02-20T14:50:22.643Z,8.23
2019-02-20T14:52:52.225Z,8.57
2019-02-20T14:55:21.752Z,7.87
2019-02-20T14:57:51.320Z,7.57
2019-02-20T15:00:20.838Z,7.60
2019-02-20T15:02:50.310Z,6.83
2019-02-20T15:05:20.212Z,7.20
2019-02-20T15:07:49.724Z,7.60
2019-02-20T15:10:19.140Z,7.00
2019-02-20T15:12:48.572Z,7.70
2019-02-20T15:15:19.120Z,6.93
2019-02-20T15:17:50.335Z,8.13
2019-02-20T15:20:21.355Z,8.10
2019-02-20T15:22:53.301Z,8.40
2019-02-20T15:25:23.598Z,8.33
2019-02-20T15:27:53.161Z,8.70
2019-02-20T15:30:22.723Z,8.00
2019-02-20T15:32:52.476Z,8.33
2019-02-20T15:35:21.915Z,9.17
2019-02-20T15:37:51.383Z,8.40
2019-02-20T15:40:20.879Z,8.70
2019-02-20T15:42:50.323Z,9.13
2019-02-20T15:45:19.765Z,8.30
2019-02-20T15:47:49.183Z,8.30
2019-02-20T15:50:18.805Z,9.23
2019-02-20T15:52:48.324Z,9.47
2019-02-20T15:55:18.829Z,8.73
2019-02-20T15:57:48.230Z,9.00
2019-02-20T16:00:19.551Z,8.60
2019-02-20T16:02:50.021Z,9.10
2019-02-20T16:05:19.826Z,8.97
2019-02-20T16:07:49.225Z,8.63
2019-02-20T16:10:18.694Z,9.53
2019-02-20T16:12:48.150Z,9.73
2019-02-20T16:15:17.777Z,9.53
2019-02-20T16:17:47.270Z,9.27
2019-02-20T16:20:17.066Z,9.73
2019-02-20T16:22:46.813Z,10.43
2019-02-20T16:25:16.693Z,10.50
2019-02-20T16:27:47.437Z,9.67
2019-02-20T16:30:17.268Z,10.23
2019-02-20T16:32:46.880Z,10.47
2019-02-20T16:35:16.527Z,11.23
2019-02-20T16:37:45.975Z,10.37
2019-02-20T16:40:15.944Z,11.73
2019-02-20T16:42:45.458Z,11.60
2019-02-20T16:45:17.762Z,10.33
2019-02-20T16:47:47.285Z,10.70
2019-02-20T16:50:17.078Z,10.47
2019-02-20T16:52:46.596Z,10.83
2019-02-20T16:55:19.029Z,10.27
2019-02-20T16:57:55.931Z,10.80
2019-02-20T17:00:20.685Z,10.47
2019-02-20T17:02:50.139Z,11.40
2019-02-20T17:05:22.714Z,11.40
2019-02-20T17:07:52.244Z,11.03
2019-02-20T17:10:22.373Z,11.10
2019-02-20T17:12:51.850Z,11.57
2019-02-20T17:15:21.274Z,11.90
2019-02-20T17:17:54.039Z,12.50
2019-02-20T17:20:23.446Z,13.13
2019-02-20T17:22:53.172Z,12.90
2019-02-20T17:25:22.572Z,12.67
2019-02-20T17:27:52.036Z,12.80
2019-02-20T17:30:21.469Z,12.90
2019-02-20T17:32:51.187Z,13.13
2019-02-20T17:35:20.609Z,12.27
2019-02-20T17:37:50.063Z,13.00
2019-02-20T17:40:19.673Z,13.13
2019-02-20T17:42:49.206Z,13.20
2019-02-20T17:45:19.249Z,13.27
2019-02-20T17:47:49.007Z,12.90
2019-02-20T17:50:20.365Z,13.30
2019-02-20T17:52:49.794Z,13.43
2019-02-20T17:55:19.276Z,13.70
2019-02-20T17:57:48.705Z,12.73
2019-02-20T18:00:19.879Z,12.80
2019-02-20T18:02:49.294Z,13.80
2019-02-20T18:05:18.736Z,13.20
2019-02-20T18:07:51.473Z,13.33
2019-02-20T18:10:19.315Z,12.97
2019-02-20T18:12:48.733Z,12.33
2019-02-20T18:15:18.190Z,12.43
2019-02-20T18:17:47.647Z,12.70
2019-02-20T18:20:17.107Z,13.03
2019-02-20T18:22:46.536Z,12.40
2019-02-20T18:25:17.064Z,12.53
2019-02-20T18:27:46.480Z,12.13
2019-02-20T18:30:16.292Z,12.40
2019-02-20T18:32:45.842Z,12.80
2019-02-20T18:35:17.195Z,12.77
2019-02-20T18:37:46.624Z,12.53
2019-02-20T18:40:16.999Z,12.63
2019-02-20T18:42:46.491Z,12.57
2019-02-20T18:45:16.058Z,12.23
2019-02-20T18:47:45.590Z,12.37
2019-02-20T18:50:16.587Z,12.70
2019-02-20T18:52:45.990Z,12.33
2019-02-20T18:55:15.428Z,12.40
2019-02-20T18:57:46.459Z,13.13
2019-02-20T19:00:19.847Z,13.37
2019-02-20T19:02:49.287Z,14.53
2019-02-20T19:05:21.456Z,14.37
2019-02-20T19:07:50.901Z,14.17
2019-02-20T19:10:23.865Z,13.43
2019-02-20T19:12:56.411Z,13.13
2019-02-20T19:15:29.060Z,12.83
2019-02-20T19:18:01.651Z,12.63
2019-02-20T19:20:37.509Z,12.77
2019-02-20T19:23:10.162Z,13.90
2019-02-20T19:25:43.637Z,13.00
2019-02-20T19:28:16.197Z,13.17
2019-02-20T19:30:48.990Z,13.13
2019-02-20T19:33:21.593Z,13.50
2019-02-20T19:35:55.064Z,13.90
2019-02-20T19:38:27.708Z,13.33
2019-02-20T19:41:00.354Z,13.53
2019-02-20T19:43:32.910Z,13.43
2019-02-20T19:46:23.269Z,14.70
2019-02-20T19:48:55.888Z,13.90
2019-02-20T19:51:28.623Z,13.70
2019-02-20T19:54:01.250Z,14.03
2019-02-20T19:56:51.660Z,15.10
2019-02-20T19:59:24.196Z,14.67
2019-02-20T20:01:56.788Z,14.33
2019-02-20T20:04:29.384Z,14.70
2019-02-20T20:07:13.757Z,14.43
2019-02-20T20:12:49.615Z,14.77
2019-02-20T20:15:27.999Z,13.87
2019-02-20T20:18:00.574Z,14.73
2019-02-20T20:20:33.506Z,15.03
2019-02-20T20:23:06.362Z,14.07
2019-02-20T20:25:39.372Z,13.90
2019-02-20T20:28:11.946Z,15.17
2019-02-20T20:30:44.897Z,13.83
2019-02-20T20:33:17.874Z,15.00
2019-02-20T20:36:01.658Z,14.70
2019-02-20T20:38:34.248Z,14.03
2019-02-20T20:41:09.134Z,15.00
2019-02-20T20:43:41.079Z,14.73
2019-02-20T20:46:13.629Z,15.33
2019-02-20T20:48:51.537Z,14.77
2019-02-20T20:51:35.105Z,14.43
2019-02-20T20:54:07.664Z,15.23
2019-02-20T20:56:40.256Z,15.33
2019-02-20T20:59:17.884Z,14.87
2019-02-20T21:01:49.979Z,14.87
2019-02-20T21:04:22.551Z,14.90
2019-02-20T21:09:58.734Z,15.07
2019-02-20T21:12:31.382Z,15.77
2019-02-20T21:15:03.980Z,15.17
2019-02-20T21:17:37.082Z,15.73
2019-02-20T21:20:09.670Z,15.90
2019-02-20T21:22:42.367Z,15.83
2019-02-20T21:25:14.929Z,15.00
2019-02-20T21:27:47.498Z,15.10
2019-02-20T21:30:20.181Z,15.00
2019-02-20T21:33:03.899Z,14.87
2019-02-20T21:35:36.502Z,15.77
2019-02-20T21:38:09.179Z,15.70
2019-02-20T21:40:41.734Z,16.57
2019-02-20T21:43:14.300Z,16.13
2019-02-20T21:45:46.900Z,15.60
2019-02-20T21:48:19.480Z,14.97
2019-02-20T21:50:55.366Z,16.20
2019-02-20T21:53:27.933Z,14.93
2019-02-20T21:56:00.512Z,16.20
2019-02-20T21:58:33.568Z,15.63
2019-02-20T22:01:06.149Z,16.00
2019-02-20T22:03:38.863Z,16.17
2019-02-20T22:06:11.453Z,16.30
2019-02-20T22:08:44.021Z,16.07
2019-02-20T22:11:16.571Z,16.13
2019-02-20T22:13:49.143Z,16.10
2019-02-20T22:16:21.799Z,16.17
2019-02-20T22:18:54.396Z,17.27
2019-02-20T22:21:27.009Z,16.40
2019-02-20T22:23:59.719Z,17.43
2019-02-20T22:26:32.269Z,16.63
2019-02-20T22:29:07.881Z,16.63
2019-02-20T22:31:40.618Z,17.20
2019-02-20T22:34:13.202Z,16.73
2019-02-20T22:36:45.761Z,17.13
2019-02-20T22:39:18.702Z,16.10
2019-02-20T22:41:51.342Z,16.20
2019-02-20T22:44:23.941Z,16.93
2019-02-20T22:46:56.948Z,17.53
2019-02-20T22:49:29.526Z,17.93
2019-02-20T22:52:02.100Z,17.30
2019-02-20T22:54:34.648Z,17.00
2019-02-20T22:57:07.309Z,17.87
2019-02-20T22:59:39.893Z,16.77
2019-02-20T23:05:20.539Z,16.77
2019-02-20T23:07:53.114Z,16.90
2019-02-20T23:10:25.723Z,17.33
2019-02-20T23:12:58.639Z,17.13
2019-02-20T23:15:28.029Z,16.50
2019-02-20T23:17:57.433Z,18.00
2019-02-20T23:20:26.875Z,17.40
2019-02-20T23:22:57.127Z,17.27
2019-02-20T23:25:26.715Z,17.63
2019-02-20T23:27:56.210Z,17.43
2019-02-20T23:30:25.675Z,18.23
2019-02-20T23:32:56.621Z,18.10
2019-02-20T23:35:26.035Z,17.97
2019-02-20T23:37:55.467Z,18.47
2019-02-20T23:40:27.339Z,18.27
2019-02-20T23:42:56.025Z,17.13
2019-02-20T23:45:25.429Z,18.80
2019-02-20T23:47:54.921Z,18.53
2019-02-20T23:50:24.497Z,17.53
2019-02-20T23:52:54.365Z,17.67
2019-02-20T23:55:23.852Z,17.50
2019-02-20T23:57:53.305Z,18.50
